sensor_id;sensor_type;location;lat;lon;timestamp;temperature;humidity
41694;DHT22;27377;50.666;9.150;2023-07-31T00:00:32;17.50;99.90
41694;DHT22;27377;50.666;9.150;2023-07-31T00:02:58;17.50;99.90
41694;DHT22;27377;50.666;9.150;2023-07-31T00:05:23;17.50;99.90
41694;DHT22;27377;50.666;9.150;2023-07-31T00:07:49;17.40;99.90
41694;DHT22;27377;50.666;9.150;2023-07-31T00:10:14;17.40;99.90
41694;DHT22;27377;50.666;9.150;2023-07-31T00:12:43;17.40;99.90
41694;DHT22;27377;50.666;9.150;2023-07-31T00:15:09;17.40;99.90
41694;DHT22;27377;50.666;9.150;2023-07-31T00:17:35;17.40;99.90
41694;DHT22;27377;50.666;9.150;2023-07-31T00:20:01;17.40;99.90
41694;DHT22;27377;50.666;9.150;2023-07-31T00:22:26;17.40;99.90
41694;DHT22;27377;50.666;9.150;2023-07-31T00:24:52;17.40;99.90
41694;DHT22;27377;50.666;9.150;2023-07-31T00:27:18;17.40;99.90
41694;DHT22;27377;50.666;9.150;2023-07-31T00:29:43;17.40;99.90
41694;DHT22;27377;50.666;9.150;2023-07-31T00:32:09;17.40;99.90
41694;DHT22;27377;50.666;9.150;2023-07-31T00:34:34;17.40;99.90
41694;DHT22;27377;50.666;9.150;2023-07-31T00:37:00;17.30;99.90
41694;DHT22;27377;50.666;9.150;2023-07-31T00:39:25;17.30;99.90
41694;DHT22;27377;50.666;9.150;2023-07-31T00:41:51;17.30;99.90
41694;DHT22;27377;50.666;9.150;2023-07-31T00:44:17;17.30;99.90
41694;DHT22;27377;50.666;9.150;2023-07-31T00:46:42;17.20;99.90
41694;DHT22;27377;50.666;9.150;2023-07-31T00:49:08;17.20;99.90
41694;DHT22;27377;50.666;9.150;2023-07-31T00:51:34;17.20;99.90
41694;DHT22;27377;50.666;9.150;2023-07-31T00:54:00;17.10;99.90
41694;DHT22;27377;50.666;9.150;2023-07-31T00:56:26;17.10;99.90
41694;DHT22;27377;50.666;9.150;2023-07-31T00:58:52;17.10;99.90
41694;DHT22;27377;50.666;9.150;2023-07-31T01:01:18;17.00;99.90
41694;DHT22;27377;50.666;9.150;2023-07-31T01:03:43;17.00;99.90
41694;DHT22;27377;50.666;9.150;2023-07-31T01:06:22;17.00;99.90
41694;DHT22;27377;50.666;9.150;2023-07-31T01:09:11;17.00;99.90
41694;DHT22;27377;50.666;9.150;2023-07-31T01:11:48;17.00;99.90
41694;DHT22;27377;50.666;9.150;2023-07-31T01:14:17;16.90;99.90
41694;DHT22;27377;50.666;9.150;2023-07-31T01:16:42;17.00;99.90
41694;DHT22;27377;50.666;9.150;2023-07-31T01:19:09;16.90;99.90
41694;DHT22;27377;50.666;9.150;2023-07-31T01:27:07;16.90;99.90
41694;DHT22;27377;50.666;9.150;2023-07-31T01:30:16;16.90;99.90
41694;DHT22;27377;50.666;9.150;2023-07-31T01:32:42;16.90;99.90
41694;DHT22;27377;50.666;9.150;2023-07-31T01:35:09;16.80;99.90
41694;DHT22;27377;50.666;9.150;2023-07-31T01:37:35;16.90;99.90
41694;DHT22;27377;50.666;9.150;2023-07-31T01:40:01;16.90;99.90
41694;DHT22;27377;50.666;9.150;2023-07-31T01:42:26;16.90;99.90
41694;DHT22;27377;50.666;9.150;2023-07-31T01:44:52;16.80;99.90
41694;DHT22;27377;50.666;9.150;2023-07-31T01:47:17;16.80;99.90
41694;DHT22;27377;50.666;9.150;2023-07-31T01:49:43;16.80;99.90
41694;DHT22;27377;50.666;9.150;2023-07-31T01:52:08;16.80;99.90
41694;DHT22;27377;50.666;9.150;2023-07-31T01:54:34;16.80;99.90
41694;DHT22;27377;50.666;9.150;2023-07-31T01:56:59;16.80;99.90
41694;DHT22;27377;50.666;9.150;2023-07-31T01:59:25;16.80;99.90
41694;DHT22;27377;50.666;9.150;2023-07-31T02:01:50;16.80;99.90
41694;DHT22;27377;50.666;9.150;2023-07-31T02:04:16;16.80;99.90
41694;DHT22;27377;50.666;9.150;2023-07-31T02:06:43;16.80;99.90
41694;DHT22;27377;50.666;9.150;2023-07-31T02:09:08;16.80;99.90
41694;DHT22;27377;50.666;9.150;2023-07-31T02:11:34;16.70;99.90
41694;DHT22;27377;50.666;9.150;2023-07-31T02:13:59;16.70;99.90
41694;DHT22;27377;50.666;9.150;2023-07-31T02:16:25;16.80;99.90
41694;DHT22;27377;50.666;9.150;2023-07-31T02:18:50;16.80;99.90
41694;DHT22;27377;50.666;9.150;2023-07-31T02:21:16;16.80;99.90
41694;DHT22;27377;50.666;9.150;2023-07-31T02:23:41;16.80;99.90
41694;DHT22;27377;50.666;9.150;2023-07-31T02:26:07;16.80;99.90
41694;DHT22;27377;50.666;9.150;2023-07-31T02:28:33;16.80;99.90
41694;DHT22;27377;50.666;9.150;2023-07-31T02:30:59;16.80;99.90
41694;DHT22;27377;50.666;9.150;2023-07-31T02:33:24;16.80;99.90
41694;DHT22;27377;50.666;9.150;2023-07-31T02:35:50;16.70;99.90
41694;DHT22;27377;50.666;9.150;2023-07-31T02:38:15;16.70;99.90
41694;DHT22;27377;50.666;9.150;2023-07-31T02:40:41;16.70;99.90
41694;DHT22;27377;50.666;9.150;2023-07-31T02:43:07;16.70;99.90
41694;DHT22;27377;50.666;9.150;2023-07-31T02:45:33;16.70;99.90
41694;DHT22;27377;50.666;9.150;2023-07-31T02:47:58;16.70;99.90
41694;DHT22;27377;50.666;9.150;2023-07-31T02:50:24;16.70;99.90
41694;DHT22;27377;50.666;9.150;2023-07-31T02:52:52;16.80;99.90
41694;DHT22;27377;50.666;9.150;2023-07-31T02:55:21;16.80;99.90
41694;DHT22;27377;50.666;9.150;2023-07-31T02:57:47;16.80;99.90
41694;DHT22;27377;50.666;9.150;2023-07-31T03:00:13;16.70;99.90
41694;DHT22;27377;50.666;9.150;2023-07-31T03:02:38;16.80;99.90
41694;DHT22;27377;50.666;9.150;2023-07-31T03:05:04;16.80;99.90
41694;DHT22;27377;50.666;9.150;2023-07-31T03:07:30;16.70;99.90
41694;DHT22;27377;50.666;9.150;2023-07-31T03:09:56;16.80;99.90
41694;DHT22;27377;50.666;9.150;2023-07-31T03:12:22;16.80;99.90
41694;DHT22;27377;50.666;9.150;2023-07-31T03:14:55;16.70;99.90
41694;DHT22;27377;50.666;9.150;2023-07-31T03:17:21;16.80;99.90
41694;DHT22;27377;50.666;9.150;2023-07-31T03:19:46;16.80;99.90
41694;DHT22;27377;50.666;9.150;2023-07-31T03:22:12;16.80;99.90
41694;DHT22;27377;50.666;9.150;2023-07-31T03:24:40;16.80;99.90
41694;DHT22;27377;50.666;9.150;2023-07-31T03:27:12;16.80;99.90
41694;DHT22;27377;50.666;9.150;2023-07-31T03:29:37;16.80;99.90
41694;DHT22;27377;50.666;9.150;2023-07-31T03:32:03;16.80;99.90
41694;DHT22;27377;50.666;9.150;2023-07-31T03:34:32;16.80;99.90
41694;DHT22;27377;50.666;9.150;2023-07-31T03:36:58;16.80;99.90
41694;DHT22;27377;50.666;9.150;2023-07-31T03:39:29;16.80;99.90
41694;DHT22;27377;50.666;9.150;2023-07-31T03:41:54;16.80;99.90
41694;DHT22;27377;50.666;9.150;2023-07-31T03:44:20;16.80;99.90
41694;DHT22;27377;50.666;9.150;2023-07-31T03:46:46;16.80;99.90
41694;DHT22;27377;50.666;9.150;2023-07-31T03:49:15;16.80;99.90
41694;DHT22;27377;50.666;9.150;2023-07-31T03:51:53;16.80;99.90
41694;DHT22;27377;50.666;9.150;2023-07-31T03:54:19;16.80;99.90
41694;DHT22;27377;50.666;9.150;2023-07-31T03:56:50;16.80;99.90
41694;DHT22;27377;50.666;9.150;2023-07-31T03:59:15;16.80;99.90
41694;DHT22;27377;50.666;9.150;2023-07-31T04:01:41;16.80;99.90
41694;DHT22;27377;50.666;9.150;2023-07-31T04:04:06;16.80;99.90
41694;DHT22;27377;50.666;9.150;2023-07-31T04:06:34;16.80;99.90
41694;DHT22;27377;50.666;9.150;2023-07-31T04:09:00;16.80;99.90
41694;DHT22;27377;50.666;9.150;2023-07-31T04:11:25;16.80;99.90
41694;DHT22;27377;50.666;9.150;2023-07-31T04:14:00;16.80;99.90
41694;DHT22;27377;50.666;9.150;2023-07-31T04:16:32;16.80;99.90
41694;DHT22;27377;50.666;9.150;2023-07-31T04:19:01;16.80;99.90
41694;DHT22;27377;50.666;9.150;2023-07-31T04:21:28;16.80;99.90
41694;DHT22;27377;50.666;9.150;2023-07-31T04:23:55;16.80;99.90
41694;DHT22;27377;50.666;9.150;2023-07-31T04:26:24;16.80;99.90
41694;DHT22;27377;50.666;9.150;2023-07-31T04:28:56;16.80;99.90
41694;DHT22;27377;50.666;9.150;2023-07-31T04:31:24;16.80;99.90
41694;DHT22;27377;50.666;9.150;2023-07-31T04:33:50;16.80;99.90
41694;DHT22;27377;50.666;9.150;2023-07-31T04:36:15;16.80;99.90
41694;DHT22;27377;50.666;9.150;2023-07-31T04:38:41;16.80;99.90
41694;DHT22;27377;50.666;9.150;2023-07-31T04:41:19;16.80;99.90
41694;DHT22;27377;50.666;9.150;2023-07-31T04:43:48;16.80;99.90
41694;DHT22;27377;50.666;9.150;2023-07-31T04:46:19;16.80;99.90
41694;DHT22;27377;50.666;9.150;2023-07-31T04:48:54;16.80;99.90
41694;DHT22;27377;50.666;9.150;2023-07-31T04:51:19;16.80;99.90
41694;DHT22;27377;50.666;9.150;2023-07-31T04:53:46;16.80;99.90
41694;DHT22;27377;50.666;9.150;2023-07-31T04:56:12;16.80;99.90
41694;DHT22;27377;50.666;9.150;2023-07-31T04:58:37;16.80;99.90
41694;DHT22;27377;50.666;9.150;2023-07-31T05:01:03;16.80;99.90
41694;DHT22;27377;50.666;9.150;2023-07-31T05:03:28;16.80;99.90
41694;DHT22;27377;50.666;9.150;2023-07-31T05:05:54;16.80;99.90
41694;DHT22;27377;50.666;9.150;2023-07-31T05:08:19;16.80;99.90
41694;DHT22;27377;50.666;9.150;2023-07-31T05:10:45;16.90;99.90
41694;DHT22;27377;50.666;9.150;2023-07-31T05:13:11;16.90;99.90
41694;DHT22;27377;50.666;9.150;2023-07-31T05:15:36;16.90;99.90
41694;DHT22;27377;50.666;9.150;2023-07-31T05:18:02;16.80;99.90
41694;DHT22;27377;50.666;9.150;2023-07-31T05:20:27;16.80;99.90
41694;DHT22;27377;50.666;9.150;2023-07-31T05:22:53;16.90;99.90
41694;DHT22;27377;50.666;9.150;2023-07-31T05:25:19;16.80;99.90
41694;DHT22;27377;50.666;9.150;2023-07-31T05:27:45;16.90;99.90
41694;DHT22;27377;50.666;9.150;2023-07-31T05:30:10;16.80;99.90
41694;DHT22;27377;50.666;9.150;2023-07-31T05:32:36;16.80;99.90
41694;DHT22;27377;50.666;9.150;2023-07-31T05:35:01;16.90;99.90
41694;DHT22;27377;50.666;9.150;2023-07-31T05:37:27;16.80;99.90
41694;DHT22;27377;50.666;9.150;2023-07-31T05:39:52;16.80;99.90
41694;DHT22;27377;50.666;9.150;2023-07-31T05:42:18;16.80;99.90
41694;DHT22;27377;50.666;9.150;2023-07-31T05:44:44;16.80;99.90
41694;DHT22;27377;50.666;9.150;2023-07-31T05:47:09;16.80;99.90
41694;DHT22;27377;50.666;9.150;2023-07-31T05:49:35;16.90;99.90
41694;DHT22;27377;50.666;9.150;2023-07-31T05:52:00;16.80;99.90
41694;DHT22;27377;50.666;9.150;2023-07-31T05:54:26;16.80;99.90
41694;DHT22;27377;50.666;9.150;2023-07-31T05:56:52;16.80;99.90
41694;DHT22;27377;50.666;9.150;2023-07-31T05:59:17;16.90;99.90
41694;DHT22;27377;50.666;9.150;2023-07-31T06:01:43;16.80;99.90
41694;DHT22;27377;50.666;9.150;2023-07-31T06:04:08;16.90;99.90
41694;DHT22;27377;50.666;9.150;2023-07-31T06:06:34;16.90;99.90
41694;DHT22;27377;50.666;9.150;2023-07-31T06:09:00;16.90;99.90
41694;DHT22;27377;50.666;9.150;2023-07-31T06:11:25;16.90;99.90
41694;DHT22;27377;50.666;9.150;2023-07-31T06:13:51;16.90;99.90
41694;DHT22;27377;50.666;9.150;2023-07-31T06:16:17;16.90;99.90
41694;DHT22;27377;50.666;9.150;2023-07-31T06:18:43;16.90;99.90
41694;DHT22;27377;50.666;9.150;2023-07-31T06:21:09;16.90;99.90
41694;DHT22;27377;50.666;9.150;2023-07-31T06:23:35;16.90;99.90
41694;DHT22;27377;50.666;9.150;2023-07-31T06:26:00;16.90;99.90
41694;DHT22;27377;50.666;9.150;2023-07-31T06:28:29;16.90;99.90
41694;DHT22;27377;50.666;9.150;2023-07-31T06:30:56;16.90;99.90
41694;DHT22;27377;50.666;9.150;2023-07-31T06:33:21;16.90;99.90
41694;DHT22;27377;50.666;9.150;2023-07-31T06:35:47;16.90;99.90
41694;DHT22;27377;50.666;9.150;2023-07-31T06:38:12;16.90;99.90
41694;DHT22;27377;50.666;9.150;2023-07-31T06:40:38;16.90;99.90
41694;DHT22;27377;50.666;9.150;2023-07-31T06:43:03;17.00;99.90
41694;DHT22;27377;50.666;9.150;2023-07-31T06:45:36;17.00;99.90
41694;DHT22;27377;50.666;9.150;2023-07-31T06:48:03;16.90;99.90
41694;DHT22;27377;50.666;9.150;2023-07-31T06:50:29;17.00;99.90
41694;DHT22;27377;50.666;9.150;2023-07-31T06:52:55;17.00;99.90
41694;DHT22;27377;50.666;9.150;2023-07-31T06:55:21;17.00;99.90
41694;DHT22;27377;50.666;9.150;2023-07-31T06:57:48;17.00;99.90
41694;DHT22;27377;50.666;9.150;2023-07-31T07:00:16;17.00;99.90
41694;DHT22;27377;50.666;9.150;2023-07-31T07:02:42;17.00;99.90
41694;DHT22;27377;50.666;9.150;2023-07-31T07:05:08;17.00;99.90
41694;DHT22;27377;50.666;9.150;2023-07-31T07:07:34;17.00;99.90
41694;DHT22;27377;50.666;9.150;2023-07-31T07:10:00;17.00;99.90
41694;DHT22;27377;50.666;9.150;2023-07-31T07:12:26;17.00;99.90
41694;DHT22;27377;50.666;9.150;2023-07-31T07:14:52;17.10;99.90
41694;DHT22;27377;50.666;9.150;2023-07-31T07:17:19;17.00;99.90
41694;DHT22;27377;50.666;9.150;2023-07-31T07:19:44;17.00;99.90
41694;DHT22;27377;50.666;9.150;2023-07-31T07:22:11;17.00;99.90
41694;DHT22;27377;50.666;9.150;2023-07-31T07:24:37;17.10;99.90
41694;DHT22;27377;50.666;9.150;2023-07-31T07:27:03;17.10;99.90
41694;DHT22;27377;50.666;9.150;2023-07-31T07:29:28;17.10;99.90
41694;DHT22;27377;50.666;9.150;2023-07-31T07:31:54;17.10;99.90
41694;DHT22;27377;50.666;9.150;2023-07-31T07:34:19;17.10;99.90
41694;DHT22;27377;50.666;9.150;2023-07-31T07:36:48;17.10;99.90
41694;DHT22;27377;50.666;9.150;2023-07-31T07:39:14;17.10;99.90
41694;DHT22;27377;50.666;9.150;2023-07-31T07:41:39;17.10;99.90
41694;DHT22;27377;50.666;9.150;2023-07-31T07:44:05;17.00;99.90
41694;DHT22;27377;50.666;9.150;2023-07-31T07:46:30;17.10;99.90
41694;DHT22;27377;50.666;9.150;2023-07-31T07:48:56;17.00;99.90
41694;DHT22;27377;50.666;9.150;2023-07-31T07:51:22;17.10;99.90
41694;DHT22;27377;50.666;9.150;2023-07-31T07:53:47;17.00;99.90
41694;DHT22;27377;50.666;9.150;2023-07-31T07:56:13;17.10;99.90
41694;DHT22;27377;50.666;9.150;2023-07-31T07:58:38;17.10;99.90
41694;DHT22;27377;50.666;9.150;2023-07-31T08:01:04;17.10;99.90
41694;DHT22;27377;50.666;9.150;2023-07-31T08:03:29;17.10;99.90
41694;DHT22;27377;50.666;9.150;2023-07-31T08:05:59;17.10;99.90
41694;DHT22;27377;50.666;9.150;2023-07-31T08:08:25;17.10;99.90
41694;DHT22;27377;50.666;9.150;2023-07-31T08:10:50;17.10;99.90
41694;DHT22;27377;50.666;9.150;2023-07-31T08:13:16;17.10;99.90
41694;DHT22;27377;50.666;9.150;2023-07-31T08:15:42;17.10;99.90
41694;DHT22;27377;50.666;9.150;2023-07-31T08:18:08;17.10;99.90
41694;DHT22;27377;50.666;9.150;2023-07-31T08:20:34;17.10;99.90
41694;DHT22;27377;50.666;9.150;2023-07-31T08:22:59;17.10;99.90
41694;DHT22;27377;50.666;9.150;2023-07-31T08:25:25;17.10;99.90
41694;DHT22;27377;50.666;9.150;2023-07-31T08:27:51;17.10;99.90
41694;DHT22;27377;50.666;9.150;2023-07-31T08:30:19;17.10;99.90
41694;DHT22;27377;50.666;9.150;2023-07-31T08:32:44;17.10;99.90
41694;DHT22;27377;50.666;9.150;2023-07-31T08:35:10;17.10;99.90
41694;DHT22;27377;50.666;9.150;2023-07-31T08:37:37;17.10;99.90
41694;DHT22;27377;50.666;9.150;2023-07-31T08:40:04;17.10;99.90
41694;DHT22;27377;50.666;9.150;2023-07-31T08:42:29;17.10;99.90
41694;DHT22;27377;50.666;9.150;2023-07-31T08:44:56;17.10;99.90
41694;DHT22;27377;50.666;9.150;2023-07-31T08:47:22;17.10;99.90
41694;DHT22;27377;50.666;9.150;2023-07-31T08:49:49;17.10;99.90
41694;DHT22;27377;50.666;9.150;2023-07-31T08:52:15;17.10;99.90
41694;DHT22;27377;50.666;9.150;2023-07-31T08:54:41;17.10;99.90
41694;DHT22;27377;50.666;9.150;2023-07-31T08:57:07;17.20;99.90
41694;DHT22;27377;50.666;9.150;2023-07-31T08:59:34;17.10;99.90
41694;DHT22;27377;50.666;9.150;2023-07-31T09:02:05;17.20;99.90
41694;DHT22;27377;50.666;9.150;2023-07-31T09:04:31;17.20;99.90
41694;DHT22;27377;50.666;9.150;2023-07-31T09:07:00;17.20;99.90
41694;DHT22;27377;50.666;9.150;2023-07-31T09:09:26;17.30;99.90
41694;DHT22;27377;50.666;9.150;2023-07-31T09:11:52;17.30;99.90
41694;DHT22;27377;50.666;9.150;2023-07-31T09:14:18;17.30;99.90
41694;DHT22;27377;50.666;9.150;2023-07-31T09:16:52;17.30;99.90
41694;DHT22;27377;50.666;9.150;2023-07-31T09:19:29;17.40;99.90
41694;DHT22;27377;50.666;9.150;2023-07-31T09:21:55;17.40;99.90
41694;DHT22;27377;50.666;9.150;2023-07-31T09:24:32;17.40;99.90
41694;DHT22;27377;50.666;9.150;2023-07-31T09:26:59;17.40;99.90
41694;DHT22;27377;50.666;9.150;2023-07-31T09:29:25;17.40;99.90
41694;DHT22;27377;50.666;9.150;2023-07-31T09:31:52;17.40;99.90
41694;DHT22;27377;50.666;9.150;2023-07-31T09:34:18;17.40;99.90
41694;DHT22;27377;50.666;9.150;2023-07-31T09:36:49;17.40;99.90
41694;DHT22;27377;50.666;9.150;2023-07-31T09:39:16;17.40;99.90
41694;DHT22;27377;50.666;9.150;2023-07-31T09:41:44;17.40;99.90
41694;DHT22;27377;50.666;9.150;2023-07-31T09:44:10;17.40;99.90
41694;DHT22;27377;50.666;9.150;2023-07-31T09:46:37;17.40;99.90
41694;DHT22;27377;50.666;9.150;2023-07-31T09:49:07;17.40;99.90
41694;DHT22;27377;50.666;9.150;2023-07-31T09:51:35;17.40;99.90
41694;DHT22;27377;50.666;9.150;2023-07-31T09:54:08;17.40;99.90
41694;DHT22;27377;50.666;9.150;2023-07-31T09:56:35;17.40;99.90
41694;DHT22;27377;50.666;9.150;2023-07-31T09:59:02;17.40;99.90
41694;DHT22;27377;50.666;9.150;2023-07-31T10:01:29;17.40;99.90
41694;DHT22;27377;50.666;9.150;2023-07-31T10:03:55;17.40;99.90
41694;DHT22;27377;50.666;9.150;2023-07-31T10:06:23;17.40;99.90
41694;DHT22;27377;50.666;9.150;2023-07-31T10:08:51;17.40;99.90
41694;DHT22;27377;50.666;9.150;2023-07-31T10:11:18;17.40;99.90
41694;DHT22;27377;50.666;9.150;2023-07-31T10:13:44;17.40;99.90
41694;DHT22;27377;50.666;9.150;2023-07-31T10:16:12;17.30;99.90
41694;DHT22;27377;50.666;9.150;2023-07-31T10:18:39;17.30;99.90
41694;DHT22;27377;50.666;9.150;2023-07-31T10:21:06;17.30;99.90
41694;DHT22;27377;50.666;9.150;2023-07-31T10:23:32;17.30;99.90
41694;DHT22;27377;50.666;9.150;2023-07-31T10:25:58;17.40;99.90
41694;DHT22;27377;50.666;9.150;2023-07-31T10:28:26;17.30;99.90
41694;DHT22;27377;50.666;9.150;2023-07-31T10:30:52;17.30;99.90
41694;DHT22;27377;50.666;9.150;2023-07-31T10:33:18;17.30;99.90
41694;DHT22;27377;50.666;9.150;2023-07-31T10:35:47;17.30;99.90
41694;DHT22;27377;50.666;9.150;2023-07-31T10:38:13;17.20;99.90
41694;DHT22;27377;50.666;9.150;2023-07-31T10:40:39;17.20;99.90
41694;DHT22;27377;50.666;9.150;2023-07-31T10:43:05;17.20;99.90
41694;DHT22;27377;50.666;9.150;2023-07-31T10:45:39;17.20;99.90
41694;DHT22;27377;50.666;9.150;2023-07-31T10:48:13;17.20;99.90
41694;DHT22;27377;50.666;9.150;2023-07-31T10:50:55;17.20;99.90
41694;DHT22;27377;50.666;9.150;2023-07-31T10:53:29;17.20;99.90
41694;DHT22;27377;50.666;9.150;2023-07-31T10:56:06;17.20;99.90
41694;DHT22;27377;50.666;9.150;2023-07-31T10:58:32;17.30;99.90
41694;DHT22;27377;50.666;9.150;2023-07-31T11:01:01;17.30;99.90
41694;DHT22;27377;50.666;9.150;2023-07-31T11:03:47;17.30;99.90
41694;DHT22;27377;50.666;9.150;2023-07-31T11:06:15;17.40;99.90
41694;DHT22;27377;50.666;9.150;2023-07-31T11:08:46;17.40;99.90
41694;DHT22;27377;50.666;9.150;2023-07-31T11:11:14;17.40;99.90
41694;DHT22;27377;50.666;9.150;2023-07-31T11:13:42;17.40;99.90
41694;DHT22;27377;50.666;9.150;2023-07-31T11:16:08;17.40;99.90
41694;DHT22;27377;50.666;9.150;2023-07-31T11:18:34;17.50;99.90
41694;DHT22;27377;50.666;9.150;2023-07-31T11:21:00;17.50;99.90
41694;DHT22;27377;50.666;9.150;2023-07-31T11:23:25;17.60;99.90
41694;DHT22;27377;50.666;9.150;2023-07-31T11:25:51;17.60;99.90
41694;DHT22;27377;50.666;9.150;2023-07-31T11:28:18;17.60;99.90
41694;DHT22;27377;50.666;9.150;2023-07-31T11:30:45;17.60;99.90
41694;DHT22;27377;50.666;9.150;2023-07-31T11:33:12;17.60;99.90
41694;DHT22;27377;50.666;9.150;2023-07-31T11:35:47;17.60;99.90
41694;DHT22;27377;50.666;9.150;2023-07-31T11:38:39;17.60;99.90
41694;DHT22;27377;50.666;9.150;2023-07-31T11:41:05;17.60;99.90
41694;DHT22;27377;50.666;9.150;2023-07-31T11:43:31;17.70;99.90
41694;DHT22;27377;50.666;9.150;2023-07-31T11:45:59;17.70;99.90
41694;DHT22;27377;50.666;9.150;2023-07-31T11:48:27;17.70;99.90
41694;DHT22;27377;50.666;9.150;2023-07-31T11:50:54;17.70;99.90
41694;DHT22;27377;50.666;9.150;2023-07-31T11:53:44;17.80;99.90
41694;DHT22;27377;50.666;9.150;2023-07-31T11:56:14;17.80;99.90
41694;DHT22;27377;50.666;9.150;2023-07-31T11:58:42;17.80;99.90
41694;DHT22;27377;50.666;9.150;2023-07-31T12:01:09;17.80;99.90
41694;DHT22;27377;50.666;9.150;2023-07-31T12:03:35;17.80;99.90
41694;DHT22;27377;50.666;9.150;2023-07-31T12:06:00;17.90;99.90
41694;DHT22;27377;50.666;9.150;2023-07-31T12:08:26;17.80;99.90
41694;DHT22;27377;50.666;9.150;2023-07-31T12:10:53;17.90;99.90
41694;DHT22;27377;50.666;9.150;2023-07-31T12:13:26;17.90;99.90
41694;DHT22;27377;50.666;9.150;2023-07-31T12:15:56;17.90;99.90
41694;DHT22;27377;50.666;9.150;2023-07-31T12:18:23;17.90;99.90
41694;DHT22;27377;50.666;9.150;2023-07-31T12:20:54;18.00;99.90
41694;DHT22;27377;50.666;9.150;2023-07-31T12:23:25;18.00;99.90
41694;DHT22;27377;50.666;9.150;2023-07-31T12:26:04;18.00;99.90
41694;DHT22;27377;50.666;9.150;2023-07-31T12:28:34;17.90;99.90
41694;DHT22;27377;50.666;9.150;2023-07-31T12:31:00;18.00;99.90
41694;DHT22;27377;50.666;9.150;2023-07-31T12:33:33;18.00;99.90
41694;DHT22;27377;50.666;9.150;2023-07-31T12:36:01;18.00;99.90
41694;DHT22;27377;50.666;9.150;2023-07-31T12:38:27;18.00;99.90
41694;DHT22;27377;50.666;9.150;2023-07-31T12:40:52;18.00;99.90
41694;DHT22;27377;50.666;9.150;2023-07-31T12:43:18;18.00;99.90
41694;DHT22;27377;50.666;9.150;2023-07-31T12:45:43;18.00;99.90
41694;DHT22;27377;50.666;9.150;2023-07-31T12:48:09;18.00;99.90
41694;DHT22;27377;50.666;9.150;2023-07-31T12:50:35;18.00;99.90
41694;DHT22;27377;50.666;9.150;2023-07-31T12:53:02;18.00;99.90
41694;DHT22;27377;50.666;9.150;2023-07-31T12:55:29;18.10;99.90
41694;DHT22;27377;50.666;9.150;2023-07-31T12:57:55;18.10;99.90
41694;DHT22;27377;50.666;9.150;2023-07-31T13:00:21;18.10;99.90
41694;DHT22;27377;50.666;9.150;2023-07-31T13:02:47;18.10;99.90
41694;DHT22;27377;50.666;9.150;2023-07-31T13:05:13;18.10;99.90
41694;DHT22;27377;50.666;9.150;2023-07-31T13:07:39;18.20;99.90
41694;DHT22;27377;50.666;9.150;2023-07-31T13:10:06;18.20;99.90
41694;DHT22;27377;50.666;9.150;2023-07-31T13:12:32;18.20;99.90
41694;DHT22;27377;50.666;9.150;2023-07-31T13:14:57;18.30;99.90
41694;DHT22;27377;50.666;9.150;2023-07-31T13:17:23;18.30;99.90
41694;DHT22;27377;50.666;9.150;2023-07-31T13:19:48;18.30;99.90
41694;DHT22;27377;50.666;9.150;2023-07-31T13:22:14;18.30;99.90
41694;DHT22;27377;50.666;9.150;2023-07-31T13:24:40;18.30;99.90
41694;DHT22;27377;50.666;9.150;2023-07-31T13:27:05;18.30;99.90
41694;DHT22;27377;50.666;9.150;2023-07-31T13:29:31;18.30;99.90
41694;DHT22;27377;50.666;9.150;2023-07-31T13:31:57;18.30;99.90
41694;DHT22;27377;50.666;9.150;2023-07-31T13:34:23;18.30;99.90
41694;DHT22;27377;50.666;9.150;2023-07-31T13:36:49;18.30;99.90
41694;DHT22;27377;50.666;9.150;2023-07-31T13:39:14;18.30;99.90
41694;DHT22;27377;50.666;9.150;2023-07-31T13:41:40;18.30;99.90
41694;DHT22;27377;50.666;9.150;2023-07-31T13:44:05;18.30;99.90
41694;DHT22;27377;50.666;9.150;2023-07-31T13:46:31;18.30;99.90
41694;DHT22;27377;50.666;9.150;2023-07-31T13:48:58;18.30;99.90
41694;DHT22;27377;50.666;9.150;2023-07-31T13:51:25;18.30;99.90
41694;DHT22;27377;50.666;9.150;2023-07-31T13:53:51;18.30;99.90
41694;DHT22;27377;50.666;9.150;2023-07-31T13:56:16;18.30;99.90
41694;DHT22;27377;50.666;9.150;2023-07-31T13:58:42;18.30;99.90
41694;DHT22;27377;50.666;9.150;2023-07-31T14:01:08;18.30;99.90
41694;DHT22;27377;50.666;9.150;2023-07-31T14:03:34;18.30;99.90
41694;DHT22;27377;50.666;9.150;2023-07-31T14:05:59;18.30;99.90
41694;DHT22;27377;50.666;9.150;2023-07-31T14:08:25;18.30;99.90
41694;DHT22;27377;50.666;9.150;2023-07-31T14:10:51;18.30;99.90
41694;DHT22;27377;50.666;9.150;2023-07-31T14:13:16;18.40;99.90
41694;DHT22;27377;50.666;9.150;2023-07-31T14:15:42;18.40;99.90
41694;DHT22;27377;50.666;9.150;2023-07-31T14:18:08;18.40;99.90
41694;DHT22;27377;50.666;9.150;2023-07-31T14:20:34;18.40;99.90
41694;DHT22;27377;50.666;9.150;2023-07-31T14:23:00;18.40;99.90
41694;DHT22;27377;50.666;9.150;2023-07-31T14:25:26;18.40;99.90
41694;DHT22;27377;50.666;9.150;2023-07-31T14:27:51;18.40;99.90
41694;DHT22;27377;50.666;9.150;2023-07-31T14:30:17;18.40;99.90
41694;DHT22;27377;50.666;9.150;2023-07-31T14:32:44;18.40;99.90
41694;DHT22;27377;50.666;9.150;2023-07-31T14:35:09;18.50;99.90
41694;DHT22;27377;50.666;9.150;2023-07-31T14:37:42;18.50;99.90
41694;DHT22;27377;50.666;9.150;2023-07-31T14:40:10;18.50;99.90
41694;DHT22;27377;50.666;9.150;2023-07-31T14:42:36;18.50;99.90
41694;DHT22;27377;50.666;9.150;2023-07-31T14:45:05;18.50;99.90
41694;DHT22;27377;50.666;9.150;2023-07-31T14:47:31;18.50;99.90
41694;DHT22;27377;50.666;9.150;2023-07-31T14:49:57;18.60;99.90
41694;DHT22;27377;50.666;9.150;2023-07-31T14:52:24;18.60;99.90
41694;DHT22;27377;50.666;9.150;2023-07-31T14:54:50;18.60;99.90
41694;DHT22;27377;50.666;9.150;2023-07-31T14:57:15;18.60;99.90
41694;DHT22;27377;50.666;9.150;2023-07-31T14:59:41;18.60;99.90
41694;DHT22;27377;50.666;9.150;2023-07-31T15:02:08;18.60;99.90
41694;DHT22;27377;50.666;9.150;2023-07-31T15:04:35;18.60;99.90
41694;DHT22;27377;50.666;9.150;2023-07-31T15:07:00;18.60;99.90
41694;DHT22;27377;50.666;9.150;2023-07-31T15:09:26;18.60;99.90
41694;DHT22;27377;50.666;9.150;2023-07-31T15:11:52;18.60;99.90
41694;DHT22;27377;50.666;9.150;2023-07-31T15:14:17;18.60;99.90
41694;DHT22;27377;50.666;9.150;2023-07-31T15:16:43;18.60;99.90
41694;DHT22;27377;50.666;9.150;2023-07-31T15:19:08;18.60;99.90
41694;DHT22;27377;50.666;9.150;2023-07-31T15:21:36;18.60;99.90
41694;DHT22;27377;50.666;9.150;2023-07-31T15:24:02;18.60;99.90
41694;DHT22;27377;50.666;9.150;2023-07-31T15:26:27;18.60;99.90
41694;DHT22;27377;50.666;9.150;2023-07-31T15:29:03;18.60;99.90
41694;DHT22;27377;50.666;9.150;2023-07-31T15:31:34;18.60;99.90
41694;DHT22;27377;50.666;9.150;2023-07-31T15:34:00;18.60;99.90